Time;durP1;ratioP1;P1;durP2;ratioP2;P2;SDS_P1;SDS_P2;PMS_P1;PMS_P2;Temp;Humidity;BMP_temperature;BMP_pressure;BME280_temperature;BME280_humidity;BME280_pressure;Samples;Min_cycle;Max_cycle;Signal;HPM_P1;HPM_P2
2022/03/16 00:01:59;;;;;;;18.73;7.03;;;11.90;99.90;;;;;;5089016;28;20107;-78
2022/03/16 00:04:25;;;;;;;15.65;6.10;;;11.80;99.90;;;;;;5089145;28;20024;-78
2022/03/16 00:06:50;;;;;;;16.73;6.60;;;11.80;99.90;;;;;;5089310;28;20024;-78
2022/03/16 00:09:16;;;;;;;19.63;6.65;;;11.90;99.90;;;;;;5088977;28;20032;-78
2022/03/16 00:11:42;;;;;;;21.75;7.32;;;11.90;99.90;;;;;;5089126;28;20024;-78
2022/03/16 00:14:08;;;;;;;15.35;7.45;;;11.90;99.90;;;;;;5089074;28;20034;-78
2022/03/16 00:16:33;;;;;;;19.45;7.03;;;11.80;99.90;;;;;;5089178;28;20153;-78
2022/03/16 00:18:59;;;;;;;15.02;7.18;;;11.80;99.90;;;;;;5089128;28;20521;-78
2022/03/16 00:21:25;;;;;;;26.58;7.53;;;11.80;99.90;;;;;;5089842;28;20025;-78
2022/03/16 00:23:50;;;;;;;16.80;6.40;;;11.80;99.90;;;;;;5088847;28;20025;-78
2022/03/16 00:26:16;;;;;;;21.35;6.85;;;11.80;99.90;;;;;;5084918;28;20555;-78
2022/03/16 00:28:42;;;;;;;18.52;7.85;;;11.80;99.90;;;;;;5089293;28;20067;-78
2022/03/16 00:31:07;;;;;;;19.30;7.45;;;11.80;99.90;;;;;;5087760;28;20115;-78
2022/03/16 00:33:34;;;;;;;25.42;8.80;;;11.80;99.90;;;;;;5083896;28;20021;-78
2022/03/16 00:35:59;;;;;;;20.13;7.22;;;11.80;99.90;;;;;;5081046;28;20031;-78
2022/03/16 00:38:26;;;;;;;15.65;7.00;;;11.70;99.90;;;;;;5083234;28;20413;-78
2022/03/16 00:40:52;;;;;;;20.27;7.18;;;11.80;99.90;;;;;;5092422;28;20024;-78
2022/03/16 00:43:17;;;;;;;17.67;6.82;;;11.70;99.90;;;;;;5089161;28;20028;-78
2022/03/16 00:45:43;;;;;;;21.92;7.95;;;11.70;99.90;;;;;;5072104;28;20032;-78
2022/03/16 00:48:09;;;;;;;22.65;7.75;;;11.80;99.90;;;;;;5090304;28;20025;-78
2022/03/16 00:50:36;;;;;;;25.05;8.52;;;11.70;99.90;;;;;;5092906;28;20123;-79
2022/03/16 00:53:02;;;;;;;25.70;7.63;;;11.80;99.90;;;;;;5088747;28;20040;-79
2022/03/16 00:55:27;;;;;;;18.27;7.85;;;11.70;99.90;;;;;;5088847;28;20043;-79
2022/03/16 00:57:53;;;;;;;21.80;8.05;;;11.70;99.90;;;;;;5072466;28;20103;-79
2022/03/16 01:00:18;;;;;;;22.10;7.80;;;11.70;99.90;;;;;;5092826;28;20469;-78
2022/03/16 01:02:44;;;;;;;16.90;6.97;;;11.70;99.90;;;;;;5092330;28;20036;-79
2022/03/16 01:05:10;;;;;;;19.08;8.38;;;11.70;99.90;;;;;;5091075;28;20513;-78
2022/03/16 01:07:36;;;;;;;16.08;7.65;;;11.70;99.90;;;;;;5092248;28;20033;-78
2022/03/16 01:10:02;;;;;;;16.02;7.30;;;11.70;99.90;;;;;;5091178;28;20035;-78
2022/03/16 01:12:28;;;;;;;18.98;6.82;;;11.70;99.90;;;;;;5092475;28;20024;-78
2022/03/16 01:14:54;;;;;;;19.90;7.18;;;11.70;99.90;;;;;;5092239;28;20524;-78
2022/03/16 01:17:20;;;;;;;29.02;8.27;;;11.80;99.90;;;;;;5091903;28;20028;-78
2022/03/16 01:19:45;;;;;;;22.67;7.78;;;11.70;99.90;;;;;;5082420;28;20634;-78
2022/03/16 01:22:11;;;;;;;25.10;7.75;;;11.80;99.90;;;;;;5092116;28;20566;-78
2022/03/16 01:24:37;;;;;;;16.85;7.38;;;11.80;99.90;;;;;;5092320;28;20066;-78
2022/03/16 01:27:03;;;;;;;16.92;7.40;;;11.80;99.90;;;;;;5093399;28;20508;-78
2022/03/16 01:29:28;;;;;;;22.05;8.35;;;11.80;99.90;;;;;;5091907;28;20036;-78
2022/03/16 01:31:55;;;;;;;25.38;8.35;;;11.70;99.90;;;;;;5081709;28;20031;-77
2022/03/16 01:34:21;;;;;;;23.55;8.63;;;11.80;99.90;;;;;;5087670;28;20059;-78
2022/03/16 01:36:47;;;;;;;24.17;8.23;;;11.80;99.90;;;;;;5091256;28;20028;-78
2022/03/16 01:39:14;;;;;;;22.92;8.63;;;11.80;99.90;;;;;;5095123;28;20066;-78
2022/03/16 01:41:42;;;;;;;22.73;8.07;;;11.70;99.90;;;;;;5093259;28;20551;-78
2022/03/16 01:44:08;;;;;;;20.30;7.78;;;11.80;99.90;;;;;;5086311;28;20575;-78
2022/03/16 01:46:34;;;;;;;19.27;7.25;;;11.80;99.90;;;;;;5080666;28;20028;-78
2022/03/16 01:49:00;;;;;;;19.17;7.20;;;11.70;99.90;;;;;;5090167;28;20120;-78
2022/03/16 01:51:26;;;;;;;18.77;7.63;;;11.70;99.90;;;;;;5088593;28;20044;-77
2022/03/16 01:53:52;;;;;;;20.77;7.68;;;11.80;99.90;;;;;;5079286;28;20032;-78
2022/03/16 01:56:18;;;;;;;18.98;7.85;;;11.80;99.90;;;;;;5077043;28;20024;-78
2022/03/16 01:58:45;;;;;;;12.57;6.90;;;11.80;99.90;;;;;;5091466;28;20032;-78
2022/03/16 02:01:11;;;;;;;13.65;6.50;;;11.80;99.90;;;;;;5091178;28;20107;-78
2022/03/16 02:03:36;;;;;;;24.52;7.60;;;11.70;99.90;;;;;;5091768;28;20028;-78
2022/03/16 02:06:03;;;;;;;22.55;8.77;;;11.70;99.90;;;;;;5078081;28;20036;-78
2022/03/16 02:08:36;;;;;;;23.55;8.13;;;11.80;99.90;;;;;;5086562;28;20028;-78
2022/03/16 02:11:03;;;;;;;15.10;7.38;;;11.80;99.90;;;;;;5089819;28;20107;-78
2022/03/16 02:13:29;;;;;;;19.45;7.32;;;11.80;99.90;;;;;;5090735;28;20034;-78
2022/03/16 02:15:54;;;;;;;18.20;8.30;;;11.80;99.90;;;;;;5091069;28;20020;-77
2022/03/16 02:18:20;;;;;;;15.13;7.00;;;11.70;99.90;;;;;;5092424;28;20512;-77
2022/03/16 02:20:50;;;;;;;21.65;7.55;;;11.70;99.90;;;;;;5090629;28;20024;-78
2022/03/16 02:23:16;;;;;;;21.48;6.78;;;11.80;99.90;;;;;;5085026;28;20039;-77
2022/03/16 02:25:53;;;;;;;25.27;7.35;;;11.70;99.90;;;;;;5090814;28;20024;-78
2022/03/16 02:28:20;;;;;;;25.58;7.88;;;11.70;99.90;;;;;;5084044;28;20025;-78
2022/03/16 02:30:46;;;;;;;18.38;7.40;;;11.80;99.90;;;;;;5089262;28;20036;-78
2022/03/16 02:33:12;;;;;;;24.00;7.75;;;11.80;99.90;;;;;;5089153;28;20518;-78
2022/03/16 02:35:38;;;;;;;18.35;6.72;;;11.70;99.90;;;;;;5089122;28;20024;-78
2022/03/16 02:38:05;;;;;;;20.95;7.90;;;11.80;99.90;;;;;;5080506;28;20538;-78
2022/03/16 02:40:31;;;;;;;19.67;8.55;;;11.80;99.90;;;;;;5093762;28;20091;-77
2022/03/16 02:42:56;;;;;;;18.95;7.70;;;11.80;99.90;;;;;;5090950;28;20122;-78
2022/03/16 02:45:22;;;;;;;17.95;7.53;;;11.80;99.90;;;;;;5076075;28;20548;-78
2022/03/16 02:47:48;;;;;;;17.55;7.55;;;11.80;99.90;;;;;;5072895;28;20058;-78
2022/03/16 02:50:19;;;;;;;16.83;7.53;;;11.80;99.90;;;;;;5081079;28;20054;-78
2022/03/16 02:52:46;;;;;;;21.92;6.78;;;11.70;99.90;;;;;;5089977;28;20040;-78
2022/03/16 02:55:12;;;;;;;17.90;7.07;;;11.80;99.90;;;;;;5090714;28;20125;-78
2022/03/16 02:57:39;;;;;;;22.90;7.82;;;11.80;99.90;;;;;;5091158;28;20066;-78
2022/03/16 03:00:07;;;;;;;32.50;7.85;;;11.80;99.90;;;;;;5089970;28;20024;-78
2022/03/16 03:02:34;;;;;;;18.02;7.45;;;11.80;99.90;;;;;;5090208;28;20059;-78
2022/03/16 03:04:59;;;;;;;22.92;7.85;;;11.80;99.90;;;;;;5090029;28;20032;-78
2022/03/16 03:07:25;;;;;;;18.33;7.03;;;11.80;99.90;;;;;;5089816;28;20085;-78
2022/03/16 03:09:51;;;;;;;21.58;7.18;;;11.70;99.90;;;;;;5086321;28;20107;-78
2022/03/16 03:12:17;;;;;;;23.17;7.38;;;11.70;99.90;;;;;;5086432;28;20024;-78
2022/03/16 03:14:43;;;;;;;25.27;8.48;;;11.80;99.90;;;;;;5089523;28;20055;-78
2022/03/16 03:17:09;;;;;;;19.92;7.13;;;11.80;99.90;;;;;;5089586;28;20527;-77
2022/03/16 03:19:35;;;;;;;20.60;7.70;;;11.80;99.90;;;;;;5080071;28;20024;-78
2022/03/16 03:22:01;;;;;;;24.25;7.93;;;11.80;99.90;;;;;;5088556;28;20596;-78
2022/03/16 03:24:27;;;;;;;18.02;7.32;;;11.70;99.90;;;;;;5090708;28;20021;-78
2022/03/16 03:26:53;;;;;;;16.95;6.90;;;11.70;99.90;;;;;;5090139;28;20405;-78
2022/03/16 03:29:19;;;;;;;25.10;7.22;;;11.60;99.90;;;;;;5080007;28;20020;-78
2022/03/16 03:31:45;;;;;;;21.40;8.73;;;11.70;99.90;;;;;;5089358;28;20028;-77
2022/03/16 03:34:11;;;;;;;21.48;7.25;;;11.70;99.90;;;;;;5077494;28;20027;-78
2022/03/16 03:36:37;;;;;;;18.00;6.80;;;11.80;99.90;;;;;;5085840;28;20020;-78
2022/03/16 03:39:03;;;;;;;16.55;6.70;;;11.80;99.90;;;;;;5091414;28;20087;-78
2022/03/16 03:41:29;;;;;;;20.95;6.95;;;11.70;99.90;;;;;;5092096;28;20031;-77
2022/03/16 03:43:56;;;;;;;14.93;7.55;;;11.80;99.90;;;;;;5085659;28;20016;-77
2022/03/16 03:46:21;;;;;;;19.65;6.72;;;11.80;99.90;;;;;;5077487;28;20091;-77
2022/03/16 03:48:47;;;;;;;19.38;7.63;;;11.80;99.90;;;;;;5089522;28;20532;-77
2022/03/16 03:51:13;;;;;;;14.05;7.00;;;11.80;99.90;;;;;;5093880;28;20060;-77
2022/03/16 03:53:39;;;;;;;15.15;6.28;;;11.70;99.90;;;;;;5089419;28;20050;-76
2022/03/16 03:56:05;;;;;;;24.50;7.22;;;11.90;99.90;;;;;;5089299;28;20545;-77
2022/03/16 03:58:30;;;;;;;17.60;7.90;;;11.80;99.90;;;;;;5089290;28;20016;-76
2022/03/16 04:00:57;;;;;;;22.48;7.40;;;11.70;99.90;;;;;;5087278;28;20040;-77
2022/03/16 04:03:23;;;;;;;18.67;7.70;;;11.80;99.90;;;;;;5090960;28;20024;-77
2022/03/16 04:05:49;;;;;;;15.88;7.70;;;11.80;99.90;;;;;;5089019;28;20120;-77
2022/03/16 04:08:15;;;;;;;16.60;7.25;;;11.80;99.90;;;;;;5088950;28;20103;-77
2022/03/16 04:10:41;;;;;;;17.92;6.78;;;11.70;99.90;;;;;;5089107;28;20460;-79
2022/03/16 04:13:07;;;;;;;13.65;6.47;;;11.70;99.90;;;;;;5089385;28;20490;-79
2022/03/16 04:15:32;;;;;;;14.95;6.28;;;11.60;99.90;;;;;;5071884;28;20055;-79
2022/03/16 04:17:59;;;;;;;21.63;8.32;;;11.60;99.90;;;;;;5090386;28;20024;-79
2022/03/16 04:20:25;;;;;;;15.32;7.10;;;11.60;99.90;;;;;;5086709;28;20024;-79
2022/03/16 04:22:51;;;;;;;16.88;7.57;;;11.60;99.90;;;;;;5088021;28;20404;-77
2022/03/16 04:25:17;;;;;;;17.77;6.90;;;11.70;99.90;;;;;;5089041;28;20025;-77
2022/03/16 04:27:42;;;;;;;21.00;7.63;;;11.70;99.90;;;;;;5071432;28;20024;-76
2022/03/16 04:30:09;;;;;;;15.93;7.47;;;11.60;99.90;;;;;;5090635;28;20129;-77
2022/03/16 04:32:34;;;;;;;17.33;7.85;;;11.70;99.90;;;;;;5088702;28;20090;-77
2022/03/16 04:35:00;;;;;;;19.60;7.18;;;11.60;99.90;;;;;;5081014;28;20036;-77
2022/03/16 04:37:26;;;;;;;20.15;6.97;;;11.60;99.90;;;;;;5080683;28;20016;-77
2022/03/16 04:39:52;;;;;;;15.32;7.88;;;11.60;99.90;;;;;;5096633;28;20507;-77
2022/03/16 04:42:18;;;;;;;18.52;7.65;;;11.60;99.90;;;;;;5094355;28;20076;-77
2022/03/16 04:44:43;;;;;;;13.40;7.00;;;11.50;99.90;;;;;;5081029;28;20505;-77
2022/03/16 04:47:09;;;;;;;28.75;7.30;;;11.50;99.90;;;;;;5078730;28;20039;-77
2022/03/16 04:49:35;;;;;;;17.17;6.72;;;11.50;99.90;;;;;;5096298;28;20023;-77
2022/03/16 04:52:00;;;;;;;13.52;6.93;;;11.50;99.90;;;;;;5092196;28;20093;-77
2022/03/16 04:54:26;;;;;;;18.42;7.22;;;11.50;99.90;;;;;;5093627;28;20046;-77
2022/03/16 04:56:52;;;;;;;14.48;6.50;;;11.60;99.90;;;;;;5093160;28;20515;-77
2022/03/16 04:59:17;;;;;;;18.05;7.00;;;11.60;99.90;;;;;;5092380;28;20036;-77
2022/03/16 05:01:44;;;;;;;12.63;6.93;;;11.50;99.90;;;;;;5091388;28;20016;-77
2022/03/16 05:04:09;;;;;;;20.35;7.75;;;11.40;99.90;;;;;;5092849;28;20082;-77
2022/03/16 05:06:35;;;;;;;16.25;6.55;;;11.60;99.90;;;;;;5092257;28;20044;-77
2022/03/16 05:09:01;;;;;;;13.70;6.97;;;11.60;99.90;;;;;;5093465;28;20039;-77
2022/03/16 05:11:26;;;;;;;19.30;7.78;;;11.50;99.90;;;;;;5091862;28;20039;-77
2022/03/16 05:13:52;;;;;;;14.90;7.20;;;11.60;99.90;;;;;;5092439;28;20028;-77
2022/03/16 05:16:18;;;;;;;22.73;8.23;;;11.50;99.90;;;;;;5092188;28;20047;-77
2022/03/16 05:18:45;;;;;;;18.58;7.63;;;11.50;99.90;;;;;;5091776;28;20028;-77
2022/03/16 05:21:12;;;;;;;21.15;8.23;;;11.50;99.90;;;;;;5092157;28;20498;-77
2022/03/16 05:23:38;;;;;;;18.73;8.02;;;11.50;99.90;;;;;;5092095;28;20038;-77
2022/03/16 05:26:04;;;;;;;24.05;8.23;;;11.50;99.90;;;;;;5091833;28;20024;-77
2022/03/16 05:28:30;;;;;;;16.52;7.78;;;11.50;99.90;;;;;;5083765;28;20116;-77
2022/03/16 05:30:56;;;;;;;18.95;7.72;;;11.50;99.90;;;;;;5092473;28;20525;-77
2022/03/16 05:33:23;;;;;;;16.73;8.15;;;11.50;99.90;;;;;;5089401;28;20493;-77
2022/03/16 05:35:49;;;;;;;21.45;8.52;;;11.50;99.90;;;;;;5081842;28;20031;-77
2022/03/16 05:38:15;;;;;;;19.95;7.40;;;11.50;99.90;;;;;;5091366;28;20081;-77
2022/03/16 05:40:42;;;;;;;13.32;6.82;;;11.50;99.90;;;;;;5085229;28;20016;-77
2022/03/16 05:43:09;;;;;;;24.92;8.80;;;11.50;99.90;;;;;;5091917;28;20039;-76
2022/03/16 05:45:35;;;;;;;18.25;8.00;;;11.40;99.90;;;;;;5075549;28;20050;-76
2022/03/16 05:48:01;;;;;;;20.75;8.82;;;11.40;99.90;;;;;;5092928;28;20030;-76
2022/03/16 05:50:28;;;;;;;20.67;8.13;;;11.40;99.90;;;;;;5091400;28;20028;-76
2022/03/16 05:53:02;;;;;;;22.65;8.50;;;11.40;99.90;;;;;;5085281;28;20056;-76
2022/03/16 05:55:28;;;;;;;21.92;8.82;;;11.50;99.90;;;;;;5091710;28;20112;-76
2022/03/16 05:57:54;;;;;;;19.70;8.60;;;11.40;99.90;;;;;;5091591;28;20056;-82
2022/03/16 06:00:21;;;;;;;19.20;7.97;;;11.50;99.90;;;;;;5076013;28;20049;-82
2022/03/16 06:02:49;;;;;;;17.08;7.68;;;11.40;99.90;;;;;;5091142;28;20024;-82
2022/03/16 06:05:15;;;;;;;20.73;8.00;;;11.50;99.90;;;;;;5083062;28;20024;-83
2022/03/16 06:07:42;;;;;;;20.45;8.90;;;11.40;99.90;;;;;;5089695;28;20028;-82
2022/03/16 06:10:10;;;;;;;19.63;7.60;;;11.40;99.90;;;;;;5091308;28;20105;-83
2022/03/16 06:13:00;;;;;;;18.75;7.93;;;11.40;99.90;;;;;;5091114;28;20030;-83
2022/03/16 06:15:28;;;;;;;16.52;8.70;;;11.40;99.90;;;;;;5092405;28;20023;-87
2022/03/16 06:17:59;;;;;;;21.30;7.97;;;11.40;99.90;;;;;;5082765;28;20028;-82
2022/03/16 06:20:25;;;;;;;16.43;7.70;;;11.40;99.90;;;;;;5087366;28;20117;-84
2022/03/16 06:22:51;;;;;;;16.02;7.97;;;11.40;99.90;;;;;;5090384;28;20027;-84
2022/03/16 06:25:17;;;;;;;17.48;7.85;;;11.50;99.90;;;;;;5089908;28;20036;-86
2022/03/16 06:27:43;;;;;;;20.58;7.35;;;11.50;99.90;;;;;;5089657;28;20031;-85
2022/03/16 06:30:09;;;;;;;22.35;9.52;;;11.50;99.90;;;;;;5092493;28;20028;-85
2022/03/16 06:32:35;;;;;;;20.58;9.23;;;11.60;99.90;;;;;;5090322;28;20035;-85
2022/03/16 06:35:05;;;;;;;19.55;9.07;;;11.70;99.90;;;;;;5086396;28;20028;-85
2022/03/16 06:37:31;;;;;;;27.27;9.10;;;11.60;99.90;;;;;;5090096;28;20103;-85
2022/03/16 06:39:57;;;;;;;25.58;8.57;;;11.60;99.90;;;;;;5094164;28;20507;-84
2022/03/16 06:42:22;;;;;;;21.75;10.45;;;11.70;99.90;;;;;;5092233;28;20104;-84
2022/03/16 06:44:48;;;;;;;18.75;8.75;;;11.70;99.90;;;;;;5079460;28;20441;-84
2022/03/16 06:47:14;;;;;;;18.08;7.28;;;11.70;99.90;;;;;;5085136;28;20028;-84
2022/03/16 06:49:40;;;;;;;18.77;8.65;;;11.60;99.90;;;;;;5086057;28;20401;-84
2022/03/16 06:52:06;;;;;;;19.23;8.15;;;11.70;99.90;;;;;;5084771;28;20044;-84
2022/03/16 06:54:31;;;;;;;22.38;7.60;;;11.70;99.90;;;;;;5086529;28;20024;-84
2022/03/16 06:56:57;;;;;;;18.10;7.97;;;11.80;99.90;;;;;;5090659;28;20284;-84
2022/03/16 06:59:23;;;;;;;21.58;8.18;;;11.80;99.90;;;;;;5081629;28;20408;-84
2022/03/16 07:01:48;;;;;;;17.98;8.13;;;11.80;99.90;;;;;;5089480;28;20039;-83
2022/03/16 07:04:14;;;;;;;27.52;8.60;;;11.90;99.90;;;;;;5090395;28;20020;-86
2022/03/16 07:06:40;;;;;;;24.42;9.07;;;11.90;99.90;;;;;;5089802;28;20532;-85
2022/03/16 07:09:05;;;;;;;19.58;8.50;;;11.80;99.90;;;;;;5071327;28;20402;-85
2022/03/16 07:11:31;;;;;;;18.90;7.90;;;11.90;99.90;;;;;;5086207;28;20087;-83
2022/03/16 07:16:41;;;;;;;22.98;9.00;;;12.00;99.90;;;;;;5088951;28;20036;-84
2022/03/16 07:19:08;;;;;;;20.88;7.93;;;11.90;99.90;;;;;;5090076;28;20508;-84
2022/03/16 07:21:34;;;;;;;18.48;8.48;;;12.00;99.90;;;;;;5090054;28;20016;-83
2022/03/16 07:24:00;;;;;;;21.73;9.32;;;12.00;99.90;;;;;;5089747;28;20079;-81
2022/03/16 07:26:27;;;;;;;19.85;8.38;;;12.00;99.90;;;;;;5089734;28;20026;-82
2022/03/16 07:28:53;;;;;;;22.52;8.77;;;12.00;99.90;;;;;;5090028;28;20031;-81
2022/03/16 07:31:19;;;;;;;21.15;8.55;;;12.10;99.90;;;;;;5090124;28;20019;-81
2022/03/16 07:33:45;;;;;;;20.05;7.63;;;12.10;99.90;;;;;;5083832;28;20024;-82
2022/03/16 07:36:11;;;;;;;19.75;8.80;;;12.10;99.90;;;;;;5090613;28;20149;-81
2022/03/16 07:38:36;;;;;;;24.10;8.25;;;12.10;99.90;;;;;;5089498;28;20386;-84
2022/03/16 07:41:02;;;;;;;24.10;10.00;;;12.10;99.90;;;;;;5093139;28;20024;-86
2022/03/16 07:43:29;;;;;;;19.52;8.63;;;12.20;99.90;;;;;;5089511;28;20039;-83
2022/03/16 07:45:56;;;;;;;16.08;7.35;;;12.20;99.90;;;;;;5088895;28;20033;-83
2022/03/16 07:48:22;;;;;;;22.95;8.55;;;12.20;99.90;;;;;;5091134;28;20107;-84
2022/03/16 07:50:48;;;;;;;20.17;8.90;;;12.20;99.90;;;;;;5084707;28;20512;-82
2022/03/16 07:53:14;;;;;;;21.65;8.80;;;12.20;99.90;;;;;;5080780;28;20032;-85
2022/03/16 07:55:39;;;;;;;24.75;8.93;;;12.30;99.90;;;;;;5089272;28;20036;-84
2022/03/16 07:58:05;;;;;;;27.85;8.70;;;12.30;99.90;;;;;;5089588;28;20122;-84
2022/03/16 08:00:31;;;;;;;20.65;8.55;;;12.30;99.90;;;;;;5089994;28;20024;-85
2022/03/16 08:03:01;;;;;;;20.85;7.82;;;12.30;99.90;;;;;;5090538;28;20424;-86
2022/03/16 08:05:28;;;;;;;27.92;8.93;;;12.30;99.90;;;;;;5089252;28;20561;-86
2022/03/16 08:07:53;;;;;;;23.10;8.63;;;12.40;99.90;;;;;;5089682;28;20277;-85
2022/03/16 08:10:20;;;;;;;27.83;8.63;;;12.40;99.90;;;;;;5089076;28;20107;-84
2022/03/16 08:12:45;;;;;;;26.55;9.15;;;12.40;99.90;;;;;;5090958;28;20127;-85
2022/03/16 08:15:11;;;;;;;18.13;7.47;;;12.50;99.90;;;;;;5094720;28;20575;-85
2022/03/16 08:17:37;;;;;;;21.20;8.77;;;12.50;99.90;;;;;;5093655;28;20024;-84
2022/03/16 08:20:03;;;;;;;22.45;8.02;;;12.60;99.90;;;;;;5092218;28;20457;-85
2022/03/16 08:22:36;;;;;;;17.50;7.90;;;12.60;99.90;;;;;;5093270;28;20075;-85
2022/03/16 08:25:05;;;;;;;22.33;8.02;;;12.60;99.90;;;;;;5093167;28;20025;-85
2022/03/16 08:27:31;;;;;;;25.00;8.25;;;12.60;99.90;;;;;;5093968;28;20023;-86
2022/03/16 08:29:57;;;;;;;19.15;7.57;;;12.60;99.90;;;;;;5093061;28;20117;-85
2022/03/16 08:32:23;;;;;;;22.33;8.00;;;12.60;99.90;;;;;;5092660;28;20108;-85
2022/03/16 08:34:50;;;;;;;17.95;7.47;;;12.60;99.90;;;;;;5088541;28;20028;-85
2022/03/16 08:37:17;;;;;;;20.85;7.95;;;12.60;99.90;;;;;;5092867;28;20024;-85
2022/03/16 08:39:42;;;;;;;24.85;8.43;;;12.60;99.90;;;;;;5094497;28;20065;-85
2022/03/16 08:42:12;;;;;;;19.60;8.25;;;12.60;99.90;;;;;;5092206;28;20043;-86
2022/03/16 08:44:39;;;;;;;25.02;8.80;;;12.60;99.90;;;;;;5083215;28;20025;-85
2022/03/16 08:47:05;;;;;;;25.55;8.27;;;12.60;99.90;;;;;;5085552;28;20024;-85
2022/03/16 08:49:31;;;;;;;23.73;7.78;;;12.70;99.90;;;;;;5088079;28;20028;-85
2022/03/16 08:51:58;;;;;;;21.58;7.90;;;12.70;99.90;;;;;;5088279;28;20044;-87
2022/03/16 08:54:25;;;;;;;23.17;8.80;;;12.70;99.90;;;;;;5090242;28;20497;-86
2022/03/16 08:56:51;;;;;;;19.63;7.65;;;12.70;99.90;;;;;;5079918;28;20174;-86
2022/03/16 08:59:19;;;;;;;25.25;7.65;;;12.70;99.90;;;;;;5086420;28;20549;-86
2022/03/16 09:01:45;;;;;;;24.75;8.85;;;12.70;99.90;;;;;;5092033;28;20042;-85
2022/03/16 09:04:11;;;;;;;18.63;8.15;;;12.70;99.90;;;;;;5091461;28;20058;-85
2022/03/16 09:06:36;;;;;;;20.27;8.43;;;12.70;99.90;;;;;;5075160;28;20540;-85
2022/03/16 09:09:02;;;;;;;24.67;8.00;;;12.70;99.90;;;;;;5093667;28;20039;-85
2022/03/16 09:11:28;;;;;;;23.83;8.35;;;12.80;99.90;;;;;;5083608;28;20024;-86
2022/03/16 09:13:55;;;;;;;22.88;7.97;;;12.80;99.90;;;;;;5092484;28;20065;-86
2022/03/16 09:16:21;;;;;;;19.52;7.07;;;12.90;99.90;;;;;;5090597;28;20063;-85
2022/03/16 09:18:49;;;;;;;24.80;8.02;;;12.90;99.90;;;;;;5090883;28;20048;-85
2022/03/16 09:21:15;;;;;;;15.50;7.78;;;13.00;99.90;;;;;;5076668;28;20024;-86
2022/03/16 09:23:41;;;;;;;16.33;7.18;;;13.10;99.90;;;;;;5081338;28;20460;-85
2022/03/16 09:26:07;;;;;;;15.85;7.93;;;13.10;99.90;;;;;;5091966;28;20039;-86
2022/03/16 09:28:33;;;;;;;17.27;7.53;;;13.20;99.90;;;;;;5092062;28;20055;-85
2022/03/16 09:30:59;;;;;;;25.90;8.27;;;13.30;99.90;;;;;;5086869;28;20596;-85
2022/03/16 09:33:24;;;;;;;15.15;6.80;;;13.30;99.90;;;;;;5081928;28;20623;-86
2022/03/16 09:35:54;;;;;;;17.48;7.60;;;13.20;99.90;;;;;;5086239;28;20103;-85
2022/03/16 09:38:20;;;;;;;17.75;8.65;;;13.20;99.90;;;;;;5091706;28;20494;-85
2022/03/16 09:40:59;;;;;;;27.60;11.02;;;13.20;99.90;;;;;;5094097;28;20031;-87
2022/03/16 09:43:24;;;;;;;53.08;24.35;;;13.20;99.90;;;;;;5090608;28;20098;-88
2022/03/16 09:45:54;;;;;;;42.38;18.42;;;13.10;99.90;;;;;;5072493;28;20043;-87
2022/03/16 09:48:29;;;;;;;41.15;13.93;;;13.10;99.90;;;;;;5093316;28;20024;-87
2022/03/16 09:50:56;;;;;;;31.05;14.63;;;13.20;99.90;;;;;;5084769;28;20032;-87
2022/03/16 09:53:26;;;;;;;40.38;17.98;;;13.20;99.90;;;;;;5090985;28;20027;-88
2022/03/16 09:55:55;;;;;;;50.43;18.73;;;13.20;99.90;;;;;;5091095;28;20528;-86
2022/03/16 09:58:22;;;;;;;79.35;34.55;;;13.20;99.90;;;;;;5084111;28;20020;-86
2022/03/16 10:00:48;;;;;;;28.85;12.00;;;13.20;99.90;;;;;;5089252;28;20020;-87
2022/03/16 10:03:15;;;;;;;17.13;9.27;;;13.30;99.90;;;;;;5092553;28;20481;-85
2022/03/16 10:05:41;;;;;;;28.67;11.60;;;13.30;99.90;;;;;;5090932;28;20031;-86
2022/03/16 10:08:08;;;;;;;21.50;9.98;;;13.50;99.90;;;;;;5085425;28;20062;-85
2022/03/16 10:13:23;;;;;;;15.48;7.03;;;13.50;99.90;;;;;;5091100;28;20088;-87
2022/03/16 10:15:52;;;;;;;19.05;10.07;;;13.60;99.90;;;;;;5089826;28;20501;-87
2022/03/16 10:18:25;;;;;;;15.55;8.32;;;13.70;99.90;;;;;;5076179;28;20150;-88
2022/03/16 10:20:52;;;;;;;21.98;9.82;;;13.80;99.90;;;;;;5085650;28;20032;-86
2022/03/16 10:23:28;;;;;;;18.52;7.45;;;13.80;99.90;;;;;;5075582;28;20024;-87
2022/03/16 10:25:58;;;;;;;19.00;8.13;;;13.80;99.90;;;;;;5082818;28;20024;-87
2022/03/16 10:28:33;;;;;;;24.30;9.13;;;13.90;99.90;;;;;;5081755;28;20032;-87
2022/03/16 10:31:02;;;;;;;21.55;7.47;;;14.00;99.90;;;;;;5074936;28;20501;-87
2022/03/16 10:33:44;;;;;;;18.70;6.72;;;14.00;99.90;;;;;;5086763;28;20025;-85
2022/03/16 10:36:13;;;;;;;11.85;5.72;;;13.90;99.90;;;;;;5090239;28;20027;-85
2022/03/16 10:38:44;;;;;;;18.55;5.90;;;13.90;99.90;;;;;;5090664;28;20032;-86
2022/03/16 10:46:55;;;;;;;16.67;6.93;;;13.90;99.90;;;;;;5090935;28;20039;-85
2022/03/16 10:49:22;;;;;;;17.38;6.22;;;13.80;99.90;;;;;;5087380;28;20024;-85
2022/03/16 10:52:11;;;;;;;14.57;6.53;;;13.80;99.90;;;;;;5089581;28;20083;-85
2022/03/16 10:54:38;;;;;;;11.95;5.38;;;13.80;99.90;;;;;;5090659;28;20042;-86
2022/03/16 10:57:06;;;;;;;17.55;6.03;;;13.80;99.90;;;;;;5091516;28;20016;-87
2022/03/16 10:59:33;;;;;;;14.38;5.90;;;13.70;99.90;;;;;;5076945;28;20031;-86
2022/03/16 11:02:12;;;;;;;25.58;7.72;;;13.80;99.90;;;;;;5082528;28;20252;-88
2022/03/16 11:04:46;;;;;;;14.52;5.70;;;13.70;99.90;;;;;;5089717;28;20031;-86
2022/03/16 11:07:12;;;;;;;19.75;8.43;;;13.70;99.90;;;;;;5089762;28;20028;-86
2022/03/16 11:09:39;;;;;;;16.38;6.65;;;13.80;99.90;;;;;;5090331;28;20032;-86
2022/03/16 11:14:52;;;;;;;13.90;5.68;;;13.70;99.90;;;;;;5089988;28;20085;-86
2022/03/16 11:17:20;;;;;;;19.10;5.93;;;13.70;99.90;;;;;;5081241;28;20087;-87
2022/03/16 11:19:48;;;;;;;19.80;6.63;;;13.80;99.90;;;;;;5090083;28;20107;-87
2022/03/16 11:22:21;;;;;;;14.48;6.10;;;13.80;99.90;;;;;;5090070;28;20084;-86
2022/03/16 11:24:51;;;;;;;14.50;5.93;;;13.90;99.90;;;;;;5090240;28;20032;-87
2022/03/16 11:27:46;;;;;;;16.65;6.20;;;13.90;99.90;;;;;;5091223;28;20031;-88
2022/03/16 11:30:25;;;;;;;16.42;5.07;;;13.90;99.90;;;;;;5071105;28;20039;-87
2022/03/16 11:33:06;;;;;;;19.05;5.65;;;13.90;99.90;;;;;;5079814;28;20498;-86
2022/03/16 11:35:44;;;;;;;10.82;5.30;;;13.90;99.90;;;;;;5086945;28;20490;-86
2022/03/16 11:38:13;;;;;;;15.35;5.72;;;13.90;99.90;;;;;;5089109;28;20040;-87
2022/03/16 11:40:42;;;;;;;14.45;5.75;;;14.00;99.90;;;;;;5092929;28;20020;-87
2022/03/16 11:43:08;;;;;;;11.85;5.85;;;14.10;99.90;;;;;;5083713;28;20059;-87
2022/03/16 11:45:43;;;;;;;12.13;6.57;;;14.10;99.90;;;;;;5086994;28;20032;-87
2022/03/16 11:48:34;;;;;;;12.80;4.90;;;14.10;99.90;;;;;;5091045;28;20107;-88
2022/03/16 11:56:25;;;;;;;15.65;5.40;;;14.20;99.90;;;;;;5089141;28;20028;-86
2022/03/16 11:58:52;;;;;;;12.52;4.80;;;14.10;99.90;;;;;;5089757;28;20040;-86
2022/03/16 12:01:25;;;;;;;12.50;5.22;;;14.00;99.90;;;;;;5089380;28;20527;-87
2022/03/16 12:04:22;;;;;;;15.73;5.68;;;14.00;99.90;;;;;;5089544;28;20023;-87
2022/03/16 12:07:01;;;;;;;10.02;5.05;;;14.00;99.90;;;;;;5086813;28;20036;-85
2022/03/16 12:09:33;;;;;;;15.57;5.93;;;14.00;99.90;;;;;;5086720;28;20016;-84
2022/03/16 12:15:12;;;;;;;13.63;5.55;;;14.10;99.90;;;;;;5084903;28;20034;-84
2022/03/16 12:17:38;;;;;;;14.70;5.95;;;14.20;99.90;;;;;;5088425;28;20024;-85
2022/03/16 12:20:28;;;;;;;15.60;6.05;;;14.00;99.90;;;;;;5080606;28;20027;-85
2022/03/16 12:22:59;;;;;;;13.10;5.15;;;14.10;99.90;;;;;;5087988;28;20105;-85
2022/03/16 12:25:28;;;;;;;14.45;5.43;;;14.00;99.90;;;;;;5089615;28;20023;-85
2022/03/16 12:31:01;;;;;;;13.63;4.75;;;13.90;99.90;;;;;;5072840;28;20093;-86
2022/03/16 12:33:32;;;;;;;10.88;4.97;;;13.80;99.90;;;;;;5085928;28;20047;-86
2022/03/16 12:36:12;;;;;;;9.50;4.63;;;13.90;99.90;;;;;;5080952;28;20267;-86
2022/03/16 12:38:41;;;;;;;12.63;5.32;;;14.00;99.90;;;;;;5089280;28;20090;-86
2022/03/16 12:43:58;;;;;;;15.85;5.75;;;13.90;99.90;;;;;;5089028;28;20031;-85
2022/03/16 12:46:36;;;;;;;15.32;6.18;;;14.00;99.90;;;;;;5088991;28;20051;-86
2022/03/16 12:49:06;;;;;;;13.48;5.35;;;14.10;99.90;;;;;;5073541;28;20091;-86
2022/03/16 12:51:53;;;;;;;15.65;6.32;;;13.90;99.90;;;;;;5085915;28;20028;-86
2022/03/16 12:54:31;;;;;;;16.30;5.50;;;14.00;99.90;;;;;;5090093;28;20045;-85
2022/03/16 12:57:02;;;;;;;13.05;4.85;;;14.10;99.90;;;;;;5087878;28;20028;-88
2022/03/16 12:59:34;;;;;;;13.65;5.38;;;14.10;99.90;;;;;;5091548;28;20024;-88
2022/03/16 13:02:04;;;;;;;15.32;5.63;;;14.20;99.90;;;;;;5092497;28;20036;-88
2022/03/16 13:04:30;;;;;;;12.55;5.50;;;14.30;99.90;;;;;;5091471;28;20485;-87
2022/03/16 13:06:57;;;;;;;15.80;6.35;;;14.40;99.90;;;;;;5073523;28;20115;-87